Time;durP1;ratioP1;P1;durP2;ratioP2;P2;SDS_P1;SDS_P2;PMS_P1;PMS_P2;Temp;Humidity;BMP_temperature;BMP_pressure;BME280_temperature;BME280_humidity;BME280_pressure;Samples;Min_cycle;Max_cycle;Signal;HPM_P1;HPM_P2
2021/01/06 00:01:37;;;;;;;35.87;14.97;;;2.70;96.40;;;;;;5109420;28;20381;-87
2021/01/06 00:04:02;;;;;;;30.25;14.55;;;2.70;96.20;;;;;;5109088;28;20406;-85
2021/01/06 00:06:29;;;;;;;35.08;14.80;;;2.70;96.20;;;;;;5109654;28;20727;-86
2021/01/06 00:08:55;;;;;;;32.03;14.93;;;2.70;96.20;;;;;;5108953;28;20413;-82
2021/01/06 00:11:29;;;;;;;30.77;13.85;;;2.70;96.20;;;;;;5110909;28;20381;-83
2021/01/06 00:13:54;;;;;;;35.15;16.30;;;2.70;96.20;;;;;;5114806;28;20455;-84
2021/01/06 00:16:20;;;;;;;36.20;15.53;;;2.70;96.30;;;;;;5113399;28;20380;-84
2021/01/06 00:18:46;;;;;;;34.37;14.37;;;2.70;96.20;;;;;;5112682;28;20386;-83
2021/01/06 00:21:12;;;;;;;34.85;14.90;;;2.70;96.40;;;;;;5112952;28;20395;-82
2021/01/06 00:23:38;;;;;;;35.80;15.13;;;2.70;96.20;;;;;;5113090;28;20381;-83
2021/01/06 00:26:04;;;;;;;33.73;14.53;;;2.70;96.30;;;;;;5113408;28;20402;-83
2021/01/06 00:28:29;;;;;;;29.73;14.07;;;2.80;96.30;;;;;;5113219;28;20388;-82
2021/01/06 00:30:59;;;;;;;30.53;14.70;;;2.70;96.30;;;;;;5116058;28;20445;-84
2021/01/06 00:33:29;;;;;;;35.63;15.17;;;2.70;96.30;;;;;;5113770;28;20884;-83
2021/01/06 00:36:09;;;;;;;34.70;15.23;;;2.70;96.30;;;;;;5112993;28;20384;-82
2021/01/06 00:38:37;;;;;;;42.17;16.98;;;2.70;96.30;;;;;;5113191;28;20384;-83
2021/01/06 00:41:02;;;;;;;35.60;15.85;;;2.70;96.30;;;;;;5112680;28;20734;-84
2021/01/06 00:43:28;;;;;;;35.60;16.43;;;2.70;96.30;;;;;;5112565;28;20384;-82
2021/01/06 00:45:54;;;;;;;36.47;16.33;;;2.70;96.30;;;;;;5112211;28;20415;-84
2021/01/06 00:48:20;;;;;;;35.53;16.50;;;2.70;96.30;;;;;;5111836;28;20377;-83
2021/01/06 00:50:46;;;;;;;33.85;15.63;;;2.80;96.30;;;;;;5112751;28;20387;-84
2021/01/06 00:53:23;;;;;;;33.70;15.20;;;2.70;96.20;;;;;;5112393;28;20377;-83
2021/01/06 00:55:50;;;;;;;36.55;15.48;;;2.70;96.30;;;;;;5112705;28;20422;-83
2021/01/06 00:58:16;;;;;;;33.67;14.05;;;2.80;96.40;;;;;;5112006;28;20381;-82
2021/01/06 01:00:42;;;;;;;35.00;16.17;;;2.70;96.40;;;;;;5112955;28;20711;-83
2021/01/06 01:03:07;;;;;;;34.47;14.75;;;2.70;96.50;;;;;;5112488;28;20368;-85
2021/01/06 01:05:35;;;;;;;32.53;14.73;;;2.80;96.40;;;;;;5112833;28;20990;-82
2021/01/06 01:08:02;;;;;;;32.75;14.27;;;2.70;96.30;;;;;;5112030;28;20420;-81
2021/01/06 01:10:40;;;;;;;35.17;14.52;;;2.70;96.50;;;;;;5112316;28;20745;-82
2021/01/06 01:13:14;;;;;;;33.00;13.93;;;2.70;96.40;;;;;;5113277;28;20880;-83
2021/01/06 01:15:41;;;;;;;32.28;14.48;;;2.70;96.50;;;;;;5113462;28;20703;-81
2021/01/06 01:18:11;;;;;;;29.50;14.35;;;2.70;96.50;;;;;;5111560;28;20387;-83
2021/01/06 01:20:46;;;;;;;33.17;14.48;;;2.70;96.50;;;;;;5111927;28;20591;-81
2021/01/06 01:23:13;;;;;;;34.95;14.82;;;2.70;96.50;;;;;;5112114;28;20442;-83
2021/01/06 01:25:39;;;;;;;33.45;15.60;;;2.70;96.50;;;;;;5113030;28;20435;-85
2021/01/06 01:28:05;;;;;;;34.25;15.63;;;2.70;96.60;;;;;;5112750;28;20410;-82
2021/01/06 01:30:31;;;;;;;31.00;14.57;;;2.70;96.30;;;;;;5111587;28;20379;-83
2021/01/06 01:32:57;;;;;;;35.22;14.98;;;2.80;96.30;;;;;;5113339;28;20372;-82
2021/01/06 01:35:30;;;;;;;30.50;14.88;;;2.70;96.20;;;;;;5112573;28;20876;-83
2021/01/06 01:37:57;;;;;;;33.50;15.20;;;2.80;96.00;;;;;;5110982;28;20394;-82
2021/01/06 01:40:32;;;;;;;31.13;14.10;;;2.80;96.10;;;;;;5111559;28;20380;-82
2021/01/06 01:42:59;;;;;;;31.35;14.93;;;2.80;96.10;;;;;;5111421;28;20439;-81
2021/01/06 01:45:51;;;;;;;27.52;14.40;;;2.70;95.90;;;;;;5111601;28;20491;-81
2021/01/06 01:48:27;;;;;;;23.85;12.90;;;2.80;95.70;;;;;;5110120;28;20389;-83
2021/01/06 01:50:56;;;;;;;24.40;12.93;;;2.80;95.70;;;;;;5111592;28;20384;-82
2021/01/06 01:53:38;;;;;;;24.70;12.93;;;2.80;95.50;;;;;;5111204;28;20924;-81
2021/01/06 01:56:07;;;;;;;22.65;12.40;;;2.80;95.30;;;;;;5111042;28;20510;-82
2021/01/06 01:58:35;;;;;;;24.20;11.95;;;2.80;95.10;;;;;;5110732;28;20449;-82
2021/01/06 02:01:02;;;;;;;23.20;11.80;;;2.80;95.20;;;;;;5111177;28;20733;-82
2021/01/06 02:03:40;;;;;;;21.17;11.57;;;2.80;95.20;;;;;;5111239;28;20907;-83
2021/01/06 02:06:08;;;;;;;21.05;11.23;;;2.80;95.10;;;;;;5111013;28;20399;-83
2021/01/06 02:08:56;;;;;;;21.63;11.13;;;2.80;95.20;;;;;;5110726;28;20392;-83
2021/01/06 02:11:28;;;;;;;22.35;11.25;;;2.80;95.50;;;;;;5110846;28;20411;-83
2021/01/06 02:14:01;;;;;;;23.50;11.20;;;2.80;95.20;;;;;;5110806;28;20393;-83
2021/01/06 02:16:36;;;;;;;21.80;11.35;;;2.80;95.10;;;;;;5110897;28;20399;-83
2021/01/06 02:19:03;;;;;;;22.90;11.75;;;2.80;95.20;;;;;;5110645;28;20745;-82
2021/01/06 02:21:29;;;;;;;21.40;11.63;;;2.80;95.20;;;;;;5110951;28;20401;-82
2021/01/06 02:23:57;;;;;;;25.03;11.00;;;2.80;95.10;;;;;;5110625;28;20747;-82
2021/01/06 02:26:26;;;;;;;21.60;11.52;;;2.80;95.10;;;;;;5110776;28;20431;-82
2021/01/06 02:28:52;;;;;;;22.35;10.93;;;2.80;95.10;;;;;;5111354;28;20423;-82
2021/01/06 02:31:18;;;;;;;18.90;10.30;;;2.80;95.20;;;;;;5111746;28;20463;-83
2021/01/06 02:33:45;;;;;;;22.23;11.83;;;2.70;95.10;;;;;;5110020;28;20388;-82
2021/01/06 02:36:11;;;;;;;19.27;10.60;;;2.80;95.10;;;;;;5110339;28;20391;-83
2021/01/06 02:38:37;;;;;;;22.45;10.63;;;2.80;94.90;;;;;;5110097;28;20526;-82
2021/01/06 02:41:04;;;;;;;21.03;10.83;;;2.80;94.80;;;;;;5110336;28;20897;-81
2021/01/06 02:43:30;;;;;;;18.50;10.48;;;2.80;94.90;;;;;;5110487;28;20392;-83
2021/01/06 02:45:56;;;;;;;20.13;10.73;;;2.80;95.00;;;;;;5111392;28;20458;-81
2021/01/06 02:48:23;;;;;;;20.17;11.00;;;2.80;95.00;;;;;;5109860;28;20496;-81
2021/01/06 02:50:54;;;;;;;21.75;10.05;;;2.80;94.80;;;;;;5110036;28;20437;-82
2021/01/06 02:53:32;;;;;;;23.90;10.82;;;2.80;94.60;;;;;;5110344;28;20718;-82
2021/01/06 02:55:59;;;;;;;19.63;10.40;;;2.80;94.90;;;;;;5109731;28;20491;-83
2021/01/06 02:58:27;;;;;;;19.45;10.18;;;2.80;95.00;;;;;;5109674;28;20384;-82
2021/01/06 03:00:54;;;;;;;20.73;11.40;;;2.70;94.60;;;;;;5109932;28;20388;-81
2021/01/06 03:03:25;;;;;;;17.38;9.82;;;2.70;94.50;;;;;;5111220;28;20411;-82
2021/01/06 03:06:21;;;;;;;19.55;10.70;;;2.70;94.60;;;;;;5110052;28;20443;-82
2021/01/06 03:08:47;;;;;;;19.15;10.48;;;2.70;94.60;;;;;;5111007;28;20424;-82
2021/01/06 03:11:13;;;;;;;18.83;10.43;;;2.70;94.50;;;;;;5109900;28;20384;-81
2021/01/06 03:13:38;;;;;;;18.73;10.38;;;2.70;94.70;;;;;;5109732;28;20396;-83
2021/01/06 03:16:05;;;;;;;22.75;11.05;;;2.70;94.60;;;;;;5111273;28;20406;-84
2021/01/06 03:18:30;;;;;;;21.27;11.15;;;2.70;94.50;;;;;;5109160;28;20392;-81
2021/01/06 03:21:01;;;;;;;24.73;12.37;;;2.60;94.70;;;;;;5109932;28;20385;-83
2021/01/06 03:23:34;;;;;;;22.42;12.27;;;2.60;94.90;;;;;;5109991;28;20389;-81
2021/01/06 03:26:04;;;;;;;22.98;12.38;;;2.60;95.00;;;;;;5109610;28;20416;-82
2021/01/06 03:28:32;;;;;;;21.23;11.75;;;2.60;95.00;;;;;;5109492;28;20381;-81
2021/01/06 03:30:58;;;;;;;22.40;11.50;;;2.60;95.00;;;;;;5111150;28;20377;-81
2021/01/06 03:33:34;;;;;;;21.63;11.85;;;2.60;95.30;;;;;;5110027;28;20454;-82
2021/01/06 03:36:08;;;;;;;23.10;11.52;;;2.50;95.20;;;;;;5109815;28;20479;-82
2021/01/06 03:38:38;;;;;;;21.10;11.77;;;2.60;95.30;;;;;;5110747;28;20450;-81
2021/01/06 03:41:06;;;;;;;21.08;11.15;;;2.50;95.40;;;;;;5110821;28;20826;-82
2021/01/06 03:43:35;;;;;;;31.90;13.10;;;2.50;95.50;;;;;;5110862;28;20855;-81
2021/01/06 03:46:33;;;;;;;24.60;12.15;;;2.50;95.60;;;;;;5110725;28;20427;-81
2021/01/06 03:49:23;;;;;;;23.02;12.77;;;2.50;95.60;;;;;;5108308;28;20404;-82
2021/01/06 03:51:58;;;;;;;27.73;12.68;;;2.50;95.60;;;;;;5113745;28;20415;-83
2021/01/06 03:54:44;;;;;;;24.50;12.43;;;2.50;95.70;;;;;;5113584;28;20384;-82
2021/01/06 03:57:11;;;;;;;24.73;11.95;;;2.50;95.60;;;;;;5114307;28;20423;-82
2021/01/06 03:59:40;;;;;;;25.63;12.47;;;2.50;95.60;;;;;;5112357;28;20379;-81
2021/01/06 04:02:23;;;;;;;24.58;12.10;;;2.50;95.90;;;;;;5113307;28;20391;-82
2021/01/06 04:04:59;;;;;;;21.30;10.93;;;2.50;95.90;;;;;;5113491;28;20944;-83
2021/01/06 04:07:34;;;;;;;19.20;10.80;;;2.40;95.80;;;;;;5112916;28;20774;-82
2021/01/06 04:10:03;;;;;;;21.95;10.02;;;2.40;95.90;;;;;;5113447;28;20403;-82
2021/01/06 04:12:29;;;;;;;21.33;10.40;;;2.40;96.00;;;;;;5113133;28;20384;-82
2021/01/06 04:14:54;;;;;;;19.77;10.37;;;2.40;96.00;;;;;;5114815;28;20410;-82
2021/01/06 04:17:33;;;;;;;21.47;10.43;;;2.40;96.00;;;;;;5113652;28;20396;-82
2021/01/06 04:20:05;;;;;;;20.10;10.27;;;2.40;96.10;;;;;;5113031;28;20884;-83
2021/01/06 04:22:54;;;;;;;19.88;10.15;;;2.40;96.10;;;;;;5113161;28;20907;-82
2021/01/06 04:25:30;;;;;;;21.27;10.30;;;2.40;95.70;;;;;;5112751;28;20499;-83
2021/01/06 04:27:58;;;;;;;19.50;10.73;;;2.40;95.80;;;;;;5112355;28;20718;-82
2021/01/06 04:30:38;;;;;;;21.67;10.50;;;2.40;96.00;;;;;;5113080;28;20400;-83
2021/01/06 04:33:07;;;;;;;23.40;10.98;;;2.40;95.90;;;;;;5112737;28;20394;-82
2021/01/06 04:35:33;;;;;;;22.45;11.20;;;2.40;95.60;;;;;;5114275;28;20456;-83
2021/01/06 04:37:59;;;;;;;27.73;11.70;;;2.40;95.60;;;;;;5112170;28;20424;-82
2021/01/06 04:40:32;;;;;;;25.33;12.55;;;2.40;95.80;;;;;;5112887;28;20396;-82
2021/01/06 04:43:02;;;;;;;27.88;13.07;;;2.40;95.90;;;;;;5114096;28;20405;-82
2021/01/06 04:45:35;;;;;;;26.95;14.05;;;2.50;95.90;;;;;;5112395;28;20406;-82
2021/01/06 04:48:14;;;;;;;30.77;14.48;;;2.40;95.60;;;;;;5111803;28;20384;-82
2021/01/06 04:51:09;;;;;;;30.20;14.10;;;2.40;95.20;;;;;;5114614;28;20379;-82
2021/01/06 04:53:57;;;;;;;34.50;15.23;;;2.40;95.50;;;;;;5113923;28;20377;-82
2021/01/06 04:56:46;;;;;;;26.40;14.35;;;2.40;95.70;;;;;;5111777;28;20404;-81
2021/01/06 04:59:37;;;;;;;27.83;14.38;;;2.40;95.60;;;;;;5112430;28;20736;-81
2021/01/06 05:02:19;;;;;;;29.75;14.23;;;2.40;95.30;;;;;;5112134;28;20913;-81
2021/01/06 05:04:54;;;;;;;31.83;14.18;;;2.40;95.40;;;;;;5112118;28;20411;-81
2021/01/06 05:07:43;;;;;;;31.00;14.65;;;2.40;95.30;;;;;;5111948;28;20396;-81
2021/01/06 05:10:29;;;;;;;28.35;14.38;;;2.40;95.30;;;;;;5111751;28;20392;-82
2021/01/06 05:13:25;;;;;;;31.70;15.40;;;2.40;95.00;;;;;;5113546;27;20376;-81
2021/01/06 05:16:02;;;;;;;28.60;14.23;;;2.40;95.40;;;;;;5093833;28;20424;-82
2021/01/06 05:18:27;;;;;;;29.88;15.02;;;2.40;95.40;;;;;;5110241;28;20440;-82
2021/01/06 05:20:55;;;;;;;30.07;14.23;;;2.40;95.30;;;;;;5113535;28;20842;-81
2021/01/06 05:23:28;;;;;;;34.08;16.05;;;2.40;95.10;;;;;;5111534;28;20381;-82
2021/01/06 05:25:54;;;;;;;30.90;14.20;;;2.40;95.30;;;;;;5111895;28;20404;-81
2021/01/06 05:28:23;;;;;;;29.90;13.82;;;2.40;95.40;;;;;;5112873;27;20383;-83
2021/01/06 05:30:54;;;;;;;29.38;15.23;;;2.30;95.00;;;;;;5112108;28;20383;-82
2021/01/06 05:33:32;;;;;;;26.57;14.53;;;2.30;95.00;;;;;;5111463;28;20391;-81
2021/01/06 05:35:58;;;;;;;29.25;14.80;;;2.30;95.00;;;;;;5111876;28;20441;-81
2021/01/06 05:38:23;;;;;;;31.53;14.63;;;2.40;95.10;;;;;;5111743;28;20392;-81
2021/01/06 05:40:49;;;;;;;28.33;13.77;;;2.30;95.00;;;;;;5111617;28;20380;-82
2021/01/06 05:43:18;;;;;;;28.90;14.27;;;2.30;95.00;;;;;;5111845;28;20387;-82
2021/01/06 05:45:55;;;;;;;28.08;14.60;;;2.30;94.90;;;;;;5111607;28;20962;-82
2021/01/06 05:48:34;;;;;;;27.53;14.27;;;2.30;94.80;;;;;;5111026;28;20932;-81
2021/01/06 05:51:02;;;;;;;23.45;13.43;;;2.30;95.00;;;;;;5111674;28;20393;-83
2021/01/06 05:53:45;;;;;;;29.45;14.05;;;2.30;94.70;;;;;;5111142;28;20389;-82
2021/01/06 05:56:40;;;;;;;26.83;14.90;;;2.30;95.00;;;;;;5111421;28;20407;-82
2021/01/06 05:59:30;;;;;;;27.65;13.35;;;2.30;94.70;;;;;;5110874;28;20396;-82
2021/01/06 06:02:07;;;;;;;24.52;13.63;;;2.30;94.70;;;;;;5111172;28;20400;-83
2021/01/06 06:05:15;;;;;;;27.90;13.30;;;2.20;94.30;;;;;;5112465;28;20396;-82
2021/01/06 06:08:08;;;;;;;29.75;14.48;;;2.30;94.60;;;;;;5110422;28;20398;-82
2021/01/06 06:10:55;;;;;;;38.42;15.15;;;2.20;94.70;;;;;;5111983;28;20388;-82
2021/01/06 06:13:43;;;;;;;27.38;13.90;;;2.20;94.70;;;;;;5110826;28;20381;-81
2021/01/06 06:16:28;;;;;;;25.15;14.05;;;2.20;94.50;;;;;;5110724;28;20392;-81
2021/01/06 06:19:05;;;;;;;27.70;13.77;;;2.20;94.50;;;;;;5110692;28;20388;-81
2021/01/06 06:21:48;;;;;;;27.07;14.57;;;2.20;94.50;;;;;;5110495;28;20452;-81
2021/01/06 06:24:49;;;;;;;26.67;13.57;;;2.20;94.70;;;;;;5110564;28;20408;-82
2021/01/06 06:27:56;;;;;;;28.58;14.60;;;2.20;94.80;;;;;;5111659;27;20379;-83
2021/01/06 06:30:32;;;;;;;28.60;14.73;;;2.30;94.60;;;;;;5109864;28;20392;-81
2021/01/06 06:32:59;;;;;;;30.85;15.35;;;2.20;94.70;;;;;;5111761;28;20471;-82
2021/01/06 06:35:35;;;;;;;26.25;13.80;;;2.20;94.50;;;;;;5110450;28;20741;-82
2021/01/06 06:38:04;;;;;;;28.23;13.85;;;2.20;94.40;;;;;;5109688;28;20392;-82
2021/01/06 06:41:29;;;;;;;26.10;13.73;;;2.20;94.50;;;;;;5111862;28;20377;-81
2021/01/06 06:44:16;;;;;;;28.10;14.07;;;2.20;94.30;;;;;;5011086;28;20391;-83
2021/01/06 06:46:44;;;;;;;25.65;13.05;;;2.20;94.40;;;;;;5011206;28;20425;-82
2021/01/06 06:49:29;;;;;;;28.30;13.50;;;2.20;94.10;;;;;;5086396;28;20865;-82
2021/01/06 06:51:59;;;;;;;31.20;14.15;;;2.20;94.30;;;;;;5111469;28;20376;-82
2021/01/06 06:54:49;;;;;;;21.52;12.43;;;2.20;94.20;;;;;;5110305;28;20811;-82
2021/01/06 06:57:35;;;;;;;26.27;14.30;;;2.20;93.90;;;;;;5109631;28;20412;-82
2021/01/06 07:00:17;;;;;;;27.10;14.32;;;2.20;94.10;;;;;;5109867;28;20395;-82
2021/01/06 07:02:49;;;;;;;27.60;14.57;;;2.20;94.00;;;;;;5111322;28;20423;-82
2021/01/06 07:05:44;;;;;;;34.65;14.60;;;2.10;94.30;;;;;;5110252;27;20418;-82
2021/01/06 07:08:24;;;;;;;30.80;17.43;;;2.20;94.20;;;;;;5099400;28;20399;-82
2021/01/06 07:11:25;;;;;;;28.38;14.38;;;2.10;94.00;;;;;;5109688;28;20444;-82
2021/01/06 07:13:57;;;;;;;32.03;15.02;;;2.10;93.80;;;;;;5104527;27;20389;-83
2021/01/06 07:16:31;;;;;;;31.42;14.85;;;2.20;93.90;;;;;;5111236;28;20422;-81
2021/01/06 07:19:12;;;;;;;24.67;13.63;;;2.10;94.10;;;;;;5109363;28;20385;-82
2021/01/06 07:21:39;;;;;;;26.00;14.32;;;2.20;94.00;;;;;;5109132;28;20387;-81
2021/01/06 07:24:12;;;;;;;30.83;13.70;;;2.20;93.70;;;;;;5109452;28;20380;-82
2021/01/06 07:26:48;;;;;;;29.38;13.38;;;2.10;93.40;;;;;;5110743;28;20400;-83
2021/01/06 07:29:15;;;;;;;25.25;13.82;;;2.10;93.20;;;;;;5110713;28;20380;-81
2021/01/06 07:32:00;;;;;;;28.10;13.43;;;2.10;93.50;;;;;;5109413;28;20389;-81
2021/01/06 07:34:49;;;;;;;27.13;13.32;;;2.10;93.70;;;;;;5109829;28;20477;-82
2021/01/06 07:37:24;;;;;;;27.35;13.18;;;2.10;93.20;;;;;;5108613;28;20380;-83
2021/01/06 07:40:02;;;;;;;27.17;13.80;;;2.10;93.20;;;;;;5109590;28;20876;-82
2021/01/06 07:42:38;;;;;;;24.27;13.30;;;2.10;93.40;;;;;;5109212;28;20861;-81
2021/01/06 07:45:28;;;;;;;27.33;12.73;;;2.00;92.70;;;;;;5109323;28;20400;-81
2021/01/06 07:48:13;;;;;;;23.67;13.07;;;2.00;93.10;;;;;;5110516;28;20383;-80
2021/01/06 07:50:42;;;;;;;25.50;12.97;;;2.10;92.90;;;;;;5109398;28;20476;-80
2021/01/06 07:53:16;;;;;;;21.23;12.23;;;2.10;93.10;;;;;;5109537;28;20861;-82
2021/01/06 07:55:57;;;;;;;23.10;12.32;;;2.10;92.70;;;;;;5110524;28;20497;-82
2021/01/06 07:58:40;;;;;;;26.15;12.82;;;2.00;92.80;;;;;;5110261;28;20381;-82
2021/01/06 08:01:41;;;;;;;25.80;12.98;;;2.00;92.50;;;;;;5109439;28;20391;-81
2021/01/06 08:04:15;;;;;;;23.47;12.53;;;2.10;93.20;;;;;;5141905;27;20508;-82
2021/01/06 08:06:52;;;;;;;22.93;11.70;;;2.10;92.40;;;;;;5109380;28;20380;-81
2021/01/06 08:09:42;;;;;;;27.63;12.47;;;2.00;92.50;;;;;;5109312;28;20388;-83
2021/01/06 08:12:22;;;;;;;25.27;12.55;;;2.10;92.50;;;;;;5109443;28;20412;-83
2021/01/06 08:14:49;;;;;;;22.50;12.50;;;2.10;92.20;;;;;;5111052;28;20380;-82
2021/01/06 08:17:26;;;;;;;21.90;11.98;;;2.10;92.30;;;;;;5110277;28;20391;-82
2021/01/06 08:20:17;;;;;;;23.75;12.73;;;2.10;92.50;;;;;;5109591;28;20571;-82
2021/01/06 08:23:14;;;;;;;23.52;12.50;;;2.10;92.70;;;;;;5109560;28;20407;-82
2021/01/06 08:25:40;;;;;;;25.75;13.88;;;2.10;92.50;;;;;;5109114;28;20396;-82
2021/01/06 08:28:18;;;;;;;21.92;12.77;;;2.20;92.80;;;;;;5108649;28;20885;-82
2021/01/06 08:30:44;;;;;;;22.42;12.73;;;2.10;92.70;;;;;;5110135;28;20381;-82
2021/01/06 08:33:15;;;;;;;25.83;13.33;;;2.20;92.60;;;;;;5097552;28;20391;-83
2021/01/06 08:35:44;;;;;;;28.05;13.15;;;2.10;92.60;;;;;;5111789;28;20388;-82
2021/01/06 08:38:31;;;;;;;24.13;13.13;;;2.10;92.60;;;;;;5114066;27;20463;-82
2021/01/06 08:41:15;;;;;;;25.67;14.07;;;2.10;92.60;;;;;;5133007;27;20877;-83
2021/01/06 08:43:41;;;;;;;27.33;13.57;;;2.20;92.70;;;;;;5132915;27;20463;-82
2021/01/06 08:46:18;;;;;;;26.10;13.37;;;2.10;92.70;;;;;;5133104;27;20482;-83
2021/01/06 08:48:44;;;;;;;24.38;12.98;;;2.10;92.20;;;;;;5132409;27;20382;-83
2021/01/06 08:51:13;;;;;;;24.03;13.00;;;2.10;92.50;;;;;;5167667;27;20416;-82
2021/01/06 08:53:40;;;;;;;21.02;11.75;;;2.10;93.00;;;;;;5132878;27;20406;-82
2021/01/06 08:56:19;;;;;;;24.05;13.93;;;2.10;92.50;;;;;;5132579;27;20418;-82
2021/01/06 08:58:50;;;;;;;26.98;13.45;;;2.00;92.80;;;;;;5123319;27;20472;-82
2021/01/06 09:01:35;;;;;;;26.98;13.50;;;2.10;92.60;;;;;;5112007;28;20397;-82
2021/01/06 09:04:16;;;;;;;25.65;12.82;;;2.10;92.70;;;;;;5113603;28;20752;-83
2021/01/06 09:06:48;;;;;;;25.05;13.43;;;2.00;92.60;;;;;;5111867;28;20392;-83
2021/01/06 09:09:41;;;;;;;28.45;13.38;;;2.10;92.30;;;;;;5113465;28;20437;-82
2021/01/06 09:12:43;;;;;;;25.50;13.50;;;2.10;92.70;;;;;;5111671;28;20408;-79
2021/01/06 09:15:26;;;;;;;23.60;13.05;;;2.10;92.80;;;;;;5111910;28;20904;-82
2021/01/06 09:17:58;;;;;;;29.27;13.90;;;2.10;92.20;;;;;;5111331;28;20416;-82
2021/01/06 09:20:36;;;;;;;29.73;13.37;;;2.00;92.50;;;;;;5111985;28;20472;-81
2021/01/06 09:23:02;;;;;;;22.77;13.07;;;2.10;92.60;;;;;;5113533;28;20416;-82
2021/01/06 09:25:28;;;;;;;24.30;13.60;;;2.10;91.70;;;;;;5113016;28;20458;-82
2021/01/06 09:27:58;;;;;;;24.55;13.98;;;2.10;92.00;;;;;;5111170;28;20752;-82
2021/01/06 09:30:33;;;;;;;29.67;14.52;;;2.10;91.90;;;;;;5112543;28;20377;-82
2021/01/06 09:33:03;;;;;;;26.15;14.20;;;2.00;92.00;;;;;;5133502;27;20390;-82
2021/01/06 09:35:33;;;;;;;26.42;13.60;;;2.10;92.20;;;;;;5098086;28;20444;-82
2021/01/06 09:38:06;;;;;;;25.00;13.87;;;2.10;91.80;;;;;;5108347;28;20384;-82
2021/01/06 09:40:34;;;;;;;24.20;13.18;;;2.20;91.40;;;;;;5111190;28;20471;-82
2021/01/06 09:43:07;;;;;;;25.30;13.57;;;2.10;91.50;;;;;;5110513;28;20915;-83
2021/01/06 09:45:34;;;;;;;25.00;12.85;;;2.00;91.60;;;;;;5112077;28;20412;-83
2021/01/06 09:48:03;;;;;;;24.85;13.60;;;2.00;91.40;;;;;;5111823;28;20460;-82
2021/01/06 09:50:46;;;;;;;26.17;13.82;;;2.00;91.50;;;;;;5111172;28;20381;-82
2021/01/06 09:53:16;;;;;;;27.30;15.25;;;2.10;91.70;;;;;;5110767;28;20480;-82
2021/01/06 09:55:44;;;;;;;29.70;13.90;;;2.10;91.60;;;;;;5110337;28;20404;-82
2021/01/06 09:58:36;;;;;;;27.57;13.47;;;2.00;91.70;;;;;;5110324;28;20955;-83
2021/01/06 10:01:18;;;;;;;26.10;13.43;;;2.00;91.50;;;;;;5111061;28;20396;-83
2021/01/06 10:03:47;;;;;;;25.55;13.70;;;2.00;91.00;;;;;;5112868;28;20744;-82
2021/01/06 10:06:21;;;;;;;22.77;13.15;;;2.00;91.20;;;;;;5110638;28;20747;-82
2021/01/06 10:09:04;;;;;;;24.50;13.55;;;1.90;90.60;;;;;;5110562;28;20420;-83
2021/01/06 10:11:56;;;;;;;23.08;13.05;;;1.90;90.60;;;;;;5110583;28;20447;-82
2021/01/06 10:14:55;;;;;;;26.65;12.98;;;1.90;90.90;;;;;;5109979;28;20391;-82
2021/01/06 10:18:01;;;;;;;24.37;13.00;;;1.90;90.60;;;;;;5097890;28;20795;-82
2021/01/06 10:20:49;;;;;;;22.00;12.38;;;1.90;90.90;;;;;;5086200;28;20393;-82
2021/01/06 10:23:37;;;;;;;23.63;13.63;;;1.90;90.60;;;;;;5090295;28;20390;-83
2021/01/06 10:26:21;;;;;;;24.08;13.30;;;2.00;90.20;;;;;;5091650;28;20406;-82
2021/01/06 10:28:48;;;;;;;33.17;14.23;;;1.90;90.70;;;;;;5105804;28;20400;-81
2021/01/06 10:31:17;;;;;;;27.40;14.25;;;2.00;90.60;;;;;;5109779;28;20412;-82
2021/01/06 10:34:12;;;;;;;23.83;13.48;;;1.90;90.70;;;;;;5110272;28;20496;-81
2021/01/06 10:36:56;;;;;;;24.98;13.75;;;1.90;90.70;;;;;;5110241;28;20388;-81
2021/01/06 10:39:28;;;;;;;28.42;14.07;;;1.90;90.60;;;;;;5109599;28;20388;-82
2021/01/06 10:41:59;;;;;;;23.93;13.70;;;1.90;90.40;;;;;;5110458;28;20385;-81
2021/01/06 10:44:34;;;;;;;26.92;14.10;;;1.90;90.30;;;;;;5110457;28;20530;-82
2021/01/06 10:47:29;;;;;;;26.50;13.82;;;1.90;90.50;;;;;;5109875;28;20396;-83
2021/01/06 10:50:00;;;;;;;25.92;14.32;;;1.90;90.80;;;;;;5091975;28;20459;-81
2021/01/06 10:52:35;;;;;;;31.75;15.07;;;1.90;90.70;;;;;;5110328;28;20381;-81
2021/01/06 10:55:07;;;;;;;25.95;13.85;;;1.90;90.90;;;;;;5109607;28;20956;-81
2021/01/06 10:57:46;;;;;;;27.90;14.27;;;1.90;90.30;;;;;;5108849;28;20396;-81
2021/01/06 11:00:19;;;;;;;26.65;14.23;;;1.90;90.60;;;;;;5106762;28;20798;-83
2021/01/06 11:03:16;;;;;;;27.10;14.45;;;1.90;90.70;;;;;;5110822;28;20441;-82
2021/01/06 11:06:19;;;;;;;28.48;15.10;;;1.90;91.00;;;;;;5111263;28;20408;-83
2021/01/06 11:09:03;;;;;;;28.30;14.27;;;1.90;90.30;;;;;;5109357;28;20437;-81
2021/01/06 11:11:57;;;;;;;26.98;14.77;;;1.80;90.80;;;;;;5109949;28;20733;-82
2021/01/06 11:14:32;;;;;;;26.23;13.40;;;1.90;90.70;;;;;;5109951;28;20427;-83
2021/01/06 11:17:13;;;;;;;26.52;13.50;;;1.90;90.10;;;;;;5107837;28;20424;-83
2021/01/06 11:19:49;;;;;;;28.02;13.57;;;1.80;90.40;;;;;;5106755;28;20676;-83
2021/01/06 11:22:28;;;;;;;27.30;13.25;;;1.80;90.20;;;;;;5110694;28;20373;-83
2021/01/06 11:25:02;;;;;;;30.20;13.70;;;1.80;90.50;;;;;;5110334;28;20881;-83
2021/01/06 11:27:38;;;;;;;23.73;13.23;;;1.90;90.40;;;;;;5109830;28;20380;-83
2021/01/06 11:30:27;;;;;;;25.15;13.15;;;1.80;90.20;;;;;;5109508;28;20400;-82
2021/01/06 11:33:28;;;;;;;25.15;12.55;;;1.90;90.60;;;;;;5108737;28;20392;-82
2021/01/06 11:35:59;;;;;;;24.48;12.88;;;1.90;90.50;;;;;;5109357;28;20393;-82
2021/01/06 11:38:39;;;;;;;23.20;12.40;;;1.90;90.00;;;;;;5109289;28;20484;-81
2021/01/06 11:41:09;;;;;;;22.55;12.98;;;1.80;90.20;;;;;;5109226;28;20921;-81
2021/01/06 11:43:44;;;;;;;22.20;11.23;;;1.80;90.10;;;;;;5109552;28;20415;-82
2021/01/06 11:46:25;;;;;;;21.67;11.70;;;1.80;89.80;;;;;;5109614;28;20892;-81
2021/01/06 11:49:04;;;;;;;19.67;11.60;;;1.90;90.30;;;;;;5108854;28;20479;-82
2021/01/06 11:51:30;;;;;;;26.35;11.95;;;1.90;90.60;;;;;;5109787;28;20391;-82
2021/01/06 11:54:22;;;;;;;22.90;11.27;;;1.80;90.00;;;;;;5109922;28;20383;-81
2021/01/06 11:56:52;;;;;;;20.00;11.80;;;1.90;90.20;;;;;;5141889;27;20397;-82
2021/01/06 11:59:33;;;;;;;22.27;10.95;;;1.90;89.80;;;;;;5109137;28;20395;-81
2021/01/06 12:02:18;;;;;;;19.65;11.13;;;1.90;89.80;;;;;;5109075;28;20471;-83
2021/01/06 12:05:32;;;;;;;20.85;10.90;;;1.90;88.80;;;;;;5109421;28;20404;-81
2021/01/06 12:08:17;;;;;;;22.35;12.55;;;1.90;89.90;;;;;;5109930;28;20901;-83
2021/01/06 12:11:04;;;;;;;22.45;11.88;;;1.90;89.70;;;;;;5114695;28;20434;-82
2021/01/06 12:13:48;;;;;;;21.93;10.97;;;1.90;89.50;;;;;;5113134;28;20384;-81
2021/01/06 12:16:20;;;;;;;19.13;11.48;;;1.90;89.10;;;;;;5092906;28;20618;-81
2021/01/06 12:19:08;;;;;;;21.08;11.48;;;1.90;89.10;;;;;;5092469;28;20386;-82
2021/01/06 12:21:36;;;;;;;18.48;10.93;;;1.90;88.60;;;;;;5092671;28;20389;-81
2021/01/06 12:24:14;;;;;;;21.50;10.70;;;1.90;88.80;;;;;;5092607;28;20389;-81
2021/01/06 12:26:43;;;;;;;19.80;10.40;;;1.90;89.00;;;;;;5092359;28;20824;-81
2021/01/06 12:29:14;;;;;;;20.20;11.02;;;2.00;88.50;;;;;;5092477;28;20461;-82
2021/01/06 12:31:56;;;;;;;20.75;11.10;;;2.00;88.10;;;;;;5092881;28;20431;-82
2021/01/06 12:34:38;;;;;;;22.30;11.15;;;2.00;88.00;;;;;;5093762;28;20390;-81
2021/01/06 12:37:26;;;;;;;24.25;12.15;;;2.00;88.90;;;;;;5092383;28;20394;-82
2021/01/06 12:40:07;;;;;;;25.13;12.13;;;2.00;87.90;;;;;;5100303;28;20376;-82
2021/01/06 12:42:37;;;;;;;21.27;11.83;;;2.00;88.80;;;;;;5113916;28;20775;-82
2021/01/06 12:45:06;;;;;;;21.85;11.73;;;2.10;88.70;;;;;;5112881;28;20496;-84
2021/01/06 12:47:38;;;;;;;22.60;11.85;;;2.20;88.20;;;;;;5112159;28;20396;-83
2021/01/06 12:50:07;;;;;;;21.17;11.03;;;2.20;88.70;;;;;;5113882;28;20474;-82
2021/01/06 12:52:35;;;;;;;19.67;10.95;;;2.20;88.10;;;;;;5112125;28;20483;-82
2021/01/06 12:55:28;;;;;;;22.17;11.93;;;2.20;87.80;;;;;;5113970;28;20665;-83
2021/01/06 12:58:12;;;;;;;19.70;10.98;;;2.20;88.20;;;;;;5112152;28;20887;-82
2021/01/06 13:00:44;;;;;;;21.30;11.00;;;2.10;87.90;;;;;;5111908;28;20392;-83
2021/01/06 13:03:27;;;;;;;18.58;10.38;;;2.20;88.00;;;;;;5113627;28;20380;-83
2021/01/06 13:05:58;;;;;;;22.23;11.33;;;2.30;88.00;;;;;;5111856;28;20488;-83
2021/01/06 13:08:49;;;;;;;19.83;10.77;;;2.30;88.40;;;;;;5111997;28;20389;-83
2021/01/06 13:11:38;;;;;;;17.65;10.60;;;2.20;87.60;;;;;;5111995;28;20459;-83
2021/01/06 13:14:15;;;;;;;21.33;10.63;;;2.30;87.90;;;;;;5072050;28;20614;-83
2021/01/06 13:17:18;;;;;;;19.80;10.95;;;2.20;87.70;;;;;;5113167;28;20419;-83
2021/01/06 13:19:59;;;;;;;19.38;11.10;;;2.20;87.40;;;;;;5112037;28;20714;-84
2021/01/06 13:22:37;;;;;;;23.73;11.70;;;2.20;87.10;;;;;;5111677;28;20479;-83